sensor_id;sensor_type;location;lat;lon;timestamp;P1;durP1;ratioP1;P2;durP2;ratioP2
47894;SDS011;33653;52.302;8.134;2024-03-22T00:00:05;21.02;;;11.15;;
47894;SDS011;33653;52.302;8.134;2024-03-22T00:02:40;24.38;;;11.18;;
47894;SDS011;33653;52.302;8.134;2024-03-22T00:05:08;24.60;;;11.95;;
47894;SDS011;33653;52.302;8.134;2024-03-22T00:07:35;24.50;;;11.50;;
47894;SDS011;33653;52.302;8.134;2024-03-22T00:10:05;18.45;;;9.85;;
47894;SDS011;33653;52.302;8.134;2024-03-22T00:12:33;18.35;;;11.02;;
47894;SDS011;33653;52.302;8.134;2024-03-22T00:15:01;24.88;;;12.73;;
47894;SDS011;33653;52.302;8.134;2024-03-22T00:17:28;22.33;;;11.43;;
47894;SDS011;33653;52.302;8.134;2024-03-22T00:19:59;17.23;;;10.70;;
47894;SDS011;33653;52.302;8.134;2024-03-22T00:22:27;23.45;;;12.32;;
47894;SDS011;33653;52.302;8.134;2024-03-22T00:24:54;15.38;;;9.88;;
47894;SDS011;33653;52.302;8.134;2024-03-22T00:27:22;19.90;;;11.17;;
47894;SDS011;33653;52.302;8.134;2024-03-22T00:29:49;21.77;;;12.13;;
47894;SDS011;33653;52.302;8.134;2024-03-22T00:32:16;19.25;;;11.20;;
47894;SDS011;33653;52.302;8.134;2024-03-22T00:34:44;22.60;;;12.25;;
47894;SDS011;33653;52.302;8.134;2024-03-22T00:37:11;25.50;;;12.43;;
47894;SDS011;33653;52.302;8.134;2024-03-22T00:39:39;23.75;;;13.48;;
47894;SDS011;33653;52.302;8.134;2024-03-22T00:42:06;24.92;;;13.80;;
47894;SDS011;33653;52.302;8.134;2024-03-22T00:44:33;25.63;;;12.98;;
47894;SDS011;33653;52.302;8.134;2024-03-22T00:47:01;25.65;;;12.35;;
47894;SDS011;33653;52.302;8.134;2024-03-22T00:49:29;25.10;;;13.00;;
47894;SDS011;33653;52.302;8.134;2024-03-22T00:51:57;26.25;;;13.90;;
47894;SDS011;33653;52.302;8.134;2024-03-22T00:54:24;30.52;;;13.20;;
47894;SDS011;33653;52.302;8.134;2024-03-22T00:56:51;24.77;;;12.80;;
47894;SDS011;33653;52.302;8.134;2024-03-22T00:59:19;28.33;;;14.18;;
47894;SDS011;33653;52.302;8.134;2024-03-22T01:01:46;24.15;;;13.07;;
47894;SDS011;33653;52.302;8.134;2024-03-22T01:04:15;23.13;;;12.77;;
47894;SDS011;33653;52.302;8.134;2024-03-22T01:06:42;29.23;;;13.48;;
47894;SDS011;33653;52.302;8.134;2024-03-22T01:09:09;29.70;;;13.70;;
47894;SDS011;33653;52.302;8.134;2024-03-22T01:11:37;30.85;;;13.60;;
47894;SDS011;33653;52.302;8.134;2024-03-22T01:14:06;26.92;;;13.63;;
47894;SDS011;33653;52.302;8.134;2024-03-22T01:16:33;26.90;;;12.63;;
47894;SDS011;33653;52.302;8.134;2024-03-22T01:19:01;24.35;;;12.52;;
47894;SDS011;33653;52.302;8.134;2024-03-22T01:21:28;27.98;;;12.57;;
47894;SDS011;33653;52.302;8.134;2024-03-22T01:23:56;29.02;;;13.57;;
47894;SDS011;33653;52.302;8.134;2024-03-22T01:26:23;29.23;;;13.25;;
47894;SDS011;33653;52.302;8.134;2024-03-22T01:28:50;29.35;;;13.63;;
47894;SDS011;33653;52.302;8.134;2024-03-22T01:31:18;24.38;;;13.00;;
47894;SDS011;33653;52.302;8.134;2024-03-22T01:33:45;27.08;;;14.57;;
47894;SDS011;33653;52.302;8.134;2024-03-22T01:36:13;28.95;;;13.27;;
47894;SDS011;33653;52.302;8.134;2024-03-22T01:38:40;31.45;;;13.75;;
47894;SDS011;33653;52.302;8.134;2024-03-22T01:41:07;34.30;;;12.68;;
47894;SDS011;33653;52.302;8.134;2024-03-22T01:43:35;24.02;;;12.32;;
47894;SDS011;33653;52.302;8.134;2024-03-22T01:46:02;27.33;;;13.90;;
47894;SDS011;33653;52.302;8.134;2024-03-22T01:48:31;24.55;;;13.75;;
47894;SDS011;33653;52.302;8.134;2024-03-22T01:50:59;28.75;;;13.68;;
47894;SDS011;33653;52.302;8.134;2024-03-22T01:53:27;27.08;;;14.23;;
47894;SDS011;33653;52.302;8.134;2024-03-22T01:55:55;27.63;;;12.57;;
47894;SDS011;33653;52.302;8.134;2024-03-22T01:58:22;25.23;;;12.70;;
47894;SDS011;33653;52.302;8.134;2024-03-22T02:00:50;31.27;;;14.10;;
47894;SDS011;33653;52.302;8.134;2024-03-22T02:03:17;31.52;;;14.63;;
47894;SDS011;33653;52.302;8.134;2024-03-22T02:05:45;31.35;;;14.50;;
47894;SDS011;33653;52.302;8.134;2024-03-22T02:08:12;32.58;;;14.23;;
47894;SDS011;33653;52.302;8.134;2024-03-22T02:10:40;27.45;;;14.60;;
47894;SDS011;33653;52.302;8.134;2024-03-22T02:13:07;33.50;;;14.68;;
47894;SDS011;33653;52.302;8.134;2024-03-22T02:15:34;27.55;;;13.68;;
47894;SDS011;33653;52.302;8.134;2024-03-22T02:18:02;33.20;;;14.68;;
47894;SDS011;33653;52.302;8.134;2024-03-22T02:20:29;28.90;;;13.82;;
47894;SDS011;33653;52.302;8.134;2024-03-22T02:22:57;27.17;;;14.40;;
47894;SDS011;33653;52.302;8.134;2024-03-22T02:25:25;28.67;;;14.60;;
47894;SDS011;33653;52.302;8.134;2024-03-22T02:27:52;27.52;;;13.60;;
47894;SDS011;33653;52.302;8.134;2024-03-22T02:30:20;29.90;;;13.98;;
47894;SDS011;33653;52.302;8.134;2024-03-22T02:32:47;29.98;;;14.20;;
47894;SDS011;33653;52.302;8.134;2024-03-22T02:35:15;30.42;;;13.27;;
47894;SDS011;33653;52.302;8.134;2024-03-22T02:37:42;33.72;;;14.52;;
47894;SDS011;33653;52.302;8.134;2024-03-22T02:40:10;31.10;;;14.75;;
47894;SDS011;33653;52.302;8.134;2024-03-22T02:42:38;29.00;;;14.52;;
47894;SDS011;33653;52.302;8.134;2024-03-22T02:45:08;34.50;;;15.38;;
47894;SDS011;33653;52.302;8.134;2024-03-22T02:47:36;38.50;;;16.45;;
47894;SDS011;33653;52.302;8.134;2024-03-22T02:50:03;27.20;;;14.02;;
47894;SDS011;33653;52.302;8.134;2024-03-22T02:52:31;26.73;;;15.07;;
47894;SDS011;33653;52.302;8.134;2024-03-22T02:54:59;27.80;;;12.95;;
47894;SDS011;33653;52.302;8.134;2024-03-22T02:57:26;33.55;;;16.05;;
47894;SDS011;33653;52.302;8.134;2024-03-22T02:59:54;31.15;;;15.15;;
47894;SDS011;33653;52.302;8.134;2024-03-22T03:02:21;35.08;;;15.13;;
47894;SDS011;33653;52.302;8.134;2024-03-22T03:04:49;33.08;;;15.82;;
47894;SDS011;33653;52.302;8.134;2024-03-22T03:07:16;31.80;;;14.65;;
47894;SDS011;33653;52.302;8.134;2024-03-22T03:09:44;34.22;;;14.27;;
47894;SDS011;33653;52.302;8.134;2024-03-22T03:12:11;33.55;;;14.73;;
47894;SDS011;33653;52.302;8.134;2024-03-22T03:14:39;33.08;;;15.35;;
47894;SDS011;33653;52.302;8.134;2024-03-22T03:17:06;26.70;;;13.30;;
47894;SDS011;33653;52.302;8.134;2024-03-22T03:19:34;29.17;;;12.82;;
47894;SDS011;33653;52.302;8.134;2024-03-22T03:22:02;32.22;;;15.77;;
47894;SDS011;33653;52.302;8.134;2024-03-22T03:24:30;31.90;;;15.98;;
47894;SDS011;33653;52.302;8.134;2024-03-22T03:26:58;32.55;;;15.25;;
47894;SDS011;33653;52.302;8.134;2024-03-22T03:29:25;34.70;;;14.65;;
47894;SDS011;33653;52.302;8.134;2024-03-22T03:31:53;36.33;;;16.65;;
47894;SDS011;33653;52.302;8.134;2024-03-22T03:34:20;34.70;;;14.20;;
47894;SDS011;33653;52.302;8.134;2024-03-22T03:36:48;34.40;;;14.50;;
47894;SDS011;33653;52.302;8.134;2024-03-22T03:39:15;30.65;;;14.70;;
47894;SDS011;33653;52.302;8.134;2024-03-22T03:41:46;30.02;;;13.85;;
47894;SDS011;33653;52.302;8.134;2024-03-22T03:44:13;32.13;;;16.15;;
47894;SDS011;33653;52.302;8.134;2024-03-22T03:46:41;30.63;;;14.80;;
47894;SDS011;33653;52.302;8.134;2024-03-22T03:49:08;34.22;;;15.15;;
47894;SDS011;33653;52.302;8.134;2024-03-22T03:51:36;34.40;;;15.65;;
47894;SDS011;33653;52.302;8.134;2024-03-22T03:54:04;34.10;;;15.80;;
47894;SDS011;33653;52.302;8.134;2024-03-22T03:56:31;28.27;;;14.27;;
47894;SDS011;33653;52.302;8.134;2024-03-22T03:58:58;30.17;;;13.52;;
47894;SDS011;33653;52.302;8.134;2024-03-22T04:01:27;33.45;;;14.43;;
47894;SDS011;33653;52.302;8.134;2024-03-22T04:03:54;31.05;;;14.07;;
47894;SDS011;33653;52.302;8.134;2024-03-22T04:06:21;31.65;;;14.63;;
47894;SDS011;33653;52.302;8.134;2024-03-22T04:08:49;28.20;;;12.88;;
47894;SDS011;33653;52.302;8.134;2024-03-22T04:11:17;33.63;;;14.43;;
47894;SDS011;33653;52.302;8.134;2024-03-22T04:13:44;29.77;;;12.80;;
47894;SDS011;33653;52.302;8.134;2024-03-22T04:16:12;36.67;;;13.45;;
47894;SDS011;33653;52.302;8.134;2024-03-22T04:18:39;35.28;;;13.93;;
47894;SDS011;33653;52.302;8.134;2024-03-22T04:21:07;36.42;;;14.60;;
47894;SDS011;33653;52.302;8.134;2024-03-22T04:23:34;35.42;;;14.75;;
47894;SDS011;33653;52.302;8.134;2024-03-22T04:26:02;34.85;;;15.27;;
47894;SDS011;33653;52.302;8.134;2024-03-22T04:28:30;32.05;;;13.65;;
47894;SDS011;33653;52.302;8.134;2024-03-22T04:30:58;31.95;;;14.75;;
47894;SDS011;33653;52.302;8.134;2024-03-22T04:33:31;31.77;;;14.07;;
47894;SDS011;33653;52.302;8.134;2024-03-22T04:35:59;22.13;;;11.35;;
47894;SDS011;33653;52.302;8.134;2024-03-22T04:38:28;31.27;;;14.80;;
47894;SDS011;33653;52.302;8.134;2024-03-22T04:40:56;35.50;;;16.15;;
47894;SDS011;33653;52.302;8.134;2024-03-22T04:43:24;30.58;;;13.07;;
47894;SDS011;33653;52.302;8.134;2024-03-22T04:45:51;31.73;;;15.02;;
47894;SDS011;33653;52.302;8.134;2024-03-22T04:48:20;29.38;;;12.90;;
47894;SDS011;33653;52.302;8.134;2024-03-22T04:50:48;35.25;;;12.60;;
47894;SDS011;33653;52.302;8.134;2024-03-22T04:53:18;28.10;;;14.00;;
47894;SDS011;33653;52.302;8.134;2024-03-22T04:55:49;35.67;;;13.85;;
47894;SDS011;33653;52.302;8.134;2024-03-22T04:58:17;34.90;;;14.40;;
47894;SDS011;33653;52.302;8.134;2024-03-22T05:00:48;33.20;;;13.57;;
47894;SDS011;33653;52.302;8.134;2024-03-22T05:03:16;29.35;;;13.05;;
47894;SDS011;33653;52.302;8.134;2024-03-22T05:05:43;31.98;;;13.75;;
47894;SDS011;33653;52.302;8.134;2024-03-22T05:08:11;28.83;;;13.27;;
47894;SDS011;33653;52.302;8.134;2024-03-22T05:10:38;30.23;;;13.50;;
47894;SDS011;33653;52.302;8.134;2024-03-22T05:13:06;26.60;;;12.65;;
47894;SDS011;33653;52.302;8.134;2024-03-22T05:15:33;32.92;;;13.50;;
47894;SDS011;33653;52.302;8.134;2024-03-22T05:18:01;34.92;;;14.10;;
47894;SDS011;33653;52.302;8.134;2024-03-22T05:20:28;31.65;;;13.60;;
47894;SDS011;33653;52.302;8.134;2024-03-22T05:22:56;25.63;;;12.95;;
47894;SDS011;33653;52.302;8.134;2024-03-22T05:25:23;33.90;;;12.63;;
47894;SDS011;33653;52.302;8.134;2024-03-22T05:27:52;31.95;;;14.70;;
47894;SDS011;33653;52.302;8.134;2024-03-22T05:30:19;32.72;;;14.00;;
47894;SDS011;33653;52.302;8.134;2024-03-22T05:32:47;33.10;;;13.13;;
47894;SDS011;33653;52.302;8.134;2024-03-22T05:35:16;27.77;;;13.38;;
47894;SDS011;33653;52.302;8.134;2024-03-22T05:37:44;32.42;;;13.70;;
47894;SDS011;33653;52.302;8.134;2024-03-22T05:40:12;33.33;;;14.70;;
47894;SDS011;33653;52.302;8.134;2024-03-22T05:42:42;31.98;;;12.68;;
47894;SDS011;33653;52.302;8.134;2024-03-22T05:45:12;31.50;;;12.38;;
47894;SDS011;33653;52.302;8.134;2024-03-22T05:47:39;30.05;;;12.95;;
47894;SDS011;33653;52.302;8.134;2024-03-22T05:50:07;25.63;;;11.93;;
47894;SDS011;33653;52.302;8.134;2024-03-22T05:52:35;31.38;;;14.75;;
47894;SDS011;33653;52.302;8.134;2024-03-22T05:55:02;33.67;;;12.75;;
47894;SDS011;33653;52.302;8.134;2024-03-22T05:57:31;26.80;;;12.20;;
47894;SDS011;33653;52.302;8.134;2024-03-22T05:59:58;25.83;;;13.38;;
47894;SDS011;33653;52.302;8.134;2024-03-22T06:02:26;27.35;;;13.13;;
47894;SDS011;33653;52.302;8.134;2024-03-22T06:04:53;37.35;;;14.82;;
47894;SDS011;33653;52.302;8.134;2024-03-22T06:07:22;24.73;;;12.18;;
47894;SDS011;33653;52.302;8.134;2024-03-22T06:09:52;29.45;;;13.68;;
47894;SDS011;33653;52.302;8.134;2024-03-22T06:12:20;27.48;;;13.68;;
47894;SDS011;33653;52.302;8.134;2024-03-22T06:14:48;30.55;;;14.20;;
47894;SDS011;33653;52.302;8.134;2024-03-22T06:17:17;22.65;;;10.63;;
47894;SDS011;33653;52.302;8.134;2024-03-22T06:19:48;29.15;;;13.43;;
47894;SDS011;33653;52.302;8.134;2024-03-22T06:22:16;31.08;;;13.60;;
47894;SDS011;33653;52.302;8.134;2024-03-22T06:24:44;27.00;;;13.13;;
47894;SDS011;33653;52.302;8.134;2024-03-22T06:27:11;33.47;;;13.07;;
47894;SDS011;33653;52.302;8.134;2024-03-22T06:29:40;27.73;;;12.80;;
47894;SDS011;33653;52.302;8.134;2024-03-22T06:32:08;31.73;;;13.82;;
47894;SDS011;33653;52.302;8.134;2024-03-22T06:34:35;29.90;;;13.45;;
47894;SDS011;33653;52.302;8.134;2024-03-22T06:37:03;31.13;;;13.35;;
47894;SDS011;33653;52.302;8.134;2024-03-22T06:39:31;25.98;;;12.13;;
47894;SDS011;33653;52.302;8.134;2024-03-22T06:41:58;32.17;;;12.75;;
47894;SDS011;33653;52.302;8.134;2024-03-22T06:44:26;27.70;;;13.63;;
47894;SDS011;33653;52.302;8.134;2024-03-22T06:46:53;27.52;;;12.30;;
47894;SDS011;33653;52.302;8.134;2024-03-22T06:49:21;28.48;;;13.25;;
47894;SDS011;33653;52.302;8.134;2024-03-22T06:51:48;32.22;;;13.52;;
47894;SDS011;33653;52.302;8.134;2024-03-22T06:54:15;26.40;;;13.07;;
47894;SDS011;33653;52.302;8.134;2024-03-22T06:56:43;26.58;;;12.50;;
47894;SDS011;33653;52.302;8.134;2024-03-22T06:59:10;26.35;;;12.65;;
47894;SDS011;33653;52.302;8.134;2024-03-22T07:01:38;29.00;;;13.57;;
47894;SDS011;33653;52.302;8.134;2024-03-22T07:04:05;31.20;;;12.52;;
47894;SDS011;33653;52.302;8.134;2024-03-22T07:06:33;27.33;;;13.50;;
47894;SDS011;33653;52.302;8.134;2024-03-22T07:09:01;29.75;;;14.15;;
47894;SDS011;33653;52.302;8.134;2024-03-22T07:11:28;27.13;;;13.57;;
47894;SDS011;33653;52.302;8.134;2024-03-22T07:13:56;28.60;;;14.02;;
47894;SDS011;33653;52.302;8.134;2024-03-22T07:16:23;29.75;;;13.85;;
47894;SDS011;33653;52.302;8.134;2024-03-22T07:18:51;25.52;;;13.20;;
47894;SDS011;33653;52.302;8.134;2024-03-22T07:21:18;26.88;;;13.48;;
47894;SDS011;33653;52.302;8.134;2024-03-22T07:23:48;23.83;;;12.30;;
47894;SDS011;33653;52.302;8.134;2024-03-22T07:26:16;25.83;;;12.90;;
47894;SDS011;33653;52.302;8.134;2024-03-22T07:28:43;33.53;;;14.45;;
47894;SDS011;33653;52.302;8.134;2024-03-22T07:33:42;25.02;;;13.95;;
47894;SDS011;33653;52.302;8.134;2024-03-22T07:36:09;27.17;;;12.63;;
47894;SDS011;33653;52.302;8.134;2024-03-22T07:38:38;27.90;;;12.30;;
47894;SDS011;33653;52.302;8.134;2024-03-22T07:41:09;24.52;;;14.20;;
47894;SDS011;33653;52.302;8.134;2024-03-22T07:43:36;29.13;;;14.35;;
47894;SDS011;33653;52.302;8.134;2024-03-22T07:46:04;30.50;;;14.25;;
47894;SDS011;33653;52.302;8.134;2024-03-22T07:48:32;29.63;;;13.30;;
47894;SDS011;33653;52.302;8.134;2024-03-22T07:50:59;27.67;;;12.70;;
47894;SDS011;33653;52.302;8.134;2024-03-22T07:53:28;29.65;;;14.13;;
47894;SDS011;33653;52.302;8.134;2024-03-22T07:56:01;26.65;;;13.05;;
47894;SDS011;33653;52.302;8.134;2024-03-22T07:58:35;30.58;;;13.95;;
47894;SDS011;33653;52.302;8.134;2024-03-22T08:09:27;22.60;;;11.13;;
47894;SDS011;33653;52.302;8.134;2024-03-22T08:11:54;25.73;;;13.27;;
47894;SDS011;33653;52.302;8.134;2024-03-22T08:17:21;28.05;;;12.18;;
47894;SDS011;33653;52.302;8.134;2024-03-22T08:19:49;30.65;;;13.93;;
47894;SDS011;33653;52.302;8.134;2024-03-22T08:22:16;27.08;;;14.20;;
47894;SDS011;33653;52.302;8.134;2024-03-22T08:24:44;27.52;;;12.27;;
47894;SDS011;33653;52.302;8.134;2024-03-22T08:27:11;20.90;;;11.98;;
47894;SDS011;33653;52.302;8.134;2024-03-22T08:29:39;31.40;;;13.45;;
47894;SDS011;33653;52.302;8.134;2024-03-22T08:32:07;28.95;;;14.32;;
47894;SDS011;33653;52.302;8.134;2024-03-22T08:34:34;22.58;;;12.30;;
47894;SDS011;33653;52.302;8.134;2024-03-22T08:37:02;12.77;;;8.07;;
47894;SDS011;33653;52.302;8.134;2024-03-22T08:39:30;27.13;;;13.20;;
47894;SDS011;33653;52.302;8.134;2024-03-22T08:41:58;26.75;;;12.32;;
47894;SDS011;33653;52.302;8.134;2024-03-22T08:44:29;25.27;;;12.50;;
47894;SDS011;33653;52.302;8.134;2024-03-22T08:46:56;28.63;;;13.77;;
47894;SDS011;33653;52.302;8.134;2024-03-22T08:49:24;23.38;;;12.98;;
47894;SDS011;33653;52.302;8.134;2024-03-22T08:51:52;27.48;;;12.93;;
47894;SDS011;33653;52.302;8.134;2024-03-22T08:54:19;29.20;;;14.55;;
47894;SDS011;33653;52.302;8.134;2024-03-22T08:56:47;26.00;;;14.52;;
47894;SDS011;33653;52.302;8.134;2024-03-22T08:59:14;21.65;;;11.90;;
47894;SDS011;33653;52.302;8.134;2024-03-22T09:01:41;24.67;;;13.20;;
47894;SDS011;33653;52.302;8.134;2024-03-22T09:04:09;27.70;;;11.98;;
47894;SDS011;33653;52.302;8.134;2024-03-22T09:06:36;30.73;;;12.68;;
47894;SDS011;33653;52.302;8.134;2024-03-22T09:09:06;20.95;;;10.60;;
47894;SDS011;33653;52.302;8.134;2024-03-22T09:11:34;24.15;;;11.63;;
47894;SDS011;33653;52.302;8.134;2024-03-22T09:14:01;22.52;;;12.63;;
47894;SDS011;33653;52.302;8.134;2024-03-22T09:16:36;25.30;;;13.65;;
47894;SDS011;33653;52.302;8.134;2024-03-22T09:22:11;27.63;;;13.43;;
47894;SDS011;33653;52.302;8.134;2024-03-22T09:24:44;25.65;;;12.50;;
47894;SDS011;33653;52.302;8.134;2024-03-22T09:27:11;25.10;;;12.80;;
47894;SDS011;33653;52.302;8.134;2024-03-22T09:29:43;23.45;;;13.05;;
47894;SDS011;33653;52.302;8.134;2024-03-22T09:32:10;26.35;;;14.00;;
47894;SDS011;33653;52.302;8.134;2024-03-22T09:37:36;23.17;;;12.65;;
47894;SDS011;33653;52.302;8.134;2024-03-22T09:45:46;25.67;;;13.07;;
47894;SDS011;33653;52.302;8.134;2024-03-22T09:48:23;23.88;;;12.15;;
47894;SDS011;33653;52.302;8.134;2024-03-22T09:50:50;22.35;;;12.10;;
47894;SDS011;33653;52.302;8.134;2024-03-22T09:53:19;17.60;;;10.52;;
47894;SDS011;33653;52.302;8.134;2024-03-22T09:55:48;23.58;;;12.73;;
47894;SDS011;33653;52.302;8.134;2024-03-22T09:58:18;22.52;;;11.75;;
47894;SDS011;33653;52.302;8.134;2024-03-22T10:00:45;21.88;;;12.52;;
47894;SDS011;33653;52.302;8.134;2024-03-22T10:03:13;23.73;;;12.30;;
47894;SDS011;33653;52.302;8.134;2024-03-22T10:05:41;22.80;;;12.38;;
47894;SDS011;33653;52.302;8.134;2024-03-22T10:08:09;20.88;;;11.13;;
47894;SDS011;33653;52.302;8.134;2024-03-22T10:10:36;23.35;;;12.60;;
47894;SDS011;33653;52.302;8.134;2024-03-22T10:13:04;17.17;;;10.55;;
47894;SDS011;33653;52.302;8.134;2024-03-22T10:15:34;21.55;;;10.13;;
47894;SDS011;33653;52.302;8.134;2024-03-22T10:20:30;19.17;;;10.50;;
47894;SDS011;33653;52.302;8.134;2024-03-22T10:22:59;21.77;;;11.18;;
47894;SDS011;33653;52.302;8.134;2024-03-22T10:25:27;16.90;;;10.65;;
47894;SDS011;33653;52.302;8.134;2024-03-22T10:27:57;21.02;;;10.93;;
47894;SDS011;33653;52.302;8.134;2024-03-22T10:30:25;19.63;;;10.77;;
47894;SDS011;33653;52.302;8.134;2024-03-22T10:32:53;20.25;;;9.80;;
47894;SDS011;33653;52.302;8.134;2024-03-22T10:35:31;21.15;;;10.25;;
47894;SDS011;33653;52.302;8.134;2024-03-22T10:37:59;20.60;;;10.38;;
47894;SDS011;33653;52.302;8.134;2024-03-22T10:40:29;20.48;;;11.48;;
47894;SDS011;33653;52.302;8.134;2024-03-22T10:42:57;20.13;;;11.30;;
47894;SDS011;33653;52.302;8.134;2024-03-22T10:45:30;20.30;;;10.60;;
47894;SDS011;33653;52.302;8.134;2024-03-22T10:47:59;20.13;;;10.27;;
47894;SDS011;33653;52.302;8.134;2024-03-22T10:50:30;22.17;;;10.30;;
47894;SDS011;33653;52.302;8.134;2024-03-22T10:53:01;15.93;;;10.20;;
47894;SDS011;33653;52.302;8.134;2024-03-22T10:55:36;17.27;;;9.77;;
47894;SDS011;33653;52.302;8.134;2024-03-22T10:58:06;18.17;;;9.10;;
47894;SDS011;33653;52.302;8.134;2024-03-22T11:00:34;19.13;;;10.90;;
47894;SDS011;33653;52.302;8.134;2024-03-22T11:03:03;17.13;;;9.93;;
47894;SDS011;33653;52.302;8.134;2024-03-22T11:05:31;14.27;;;9.23;;
47894;SDS011;33653;52.302;8.134;2024-03-22T11:07:59;19.40;;;9.73;;
47894;SDS011;33653;52.302;8.134;2024-03-22T11:13:25;25.48;;;9.40;;
47894;SDS011;33653;52.302;8.134;2024-03-22T11:15:52;20.15;;;9.50;;
47894;SDS011;33653;52.302;8.134;2024-03-22T11:18:24;18.40;;;9.27;;
47894;SDS011;33653;52.302;8.134;2024-03-22T11:20:59;22.63;;;9.35;;
47894;SDS011;33653;52.302;8.134;2024-03-22T11:26:19;20.17;;;10.65;;
47894;SDS011;33653;52.302;8.134;2024-03-22T11:28:47;11.77;;;7.47;;
47894;SDS011;33653;52.302;8.134;2024-03-22T11:33:53;13.95;;;7.90;;
47894;SDS011;33653;52.302;8.134;2024-03-22T11:36:25;11.02;;;6.45;;
47894;SDS011;33653;52.302;8.134;2024-03-22T11:38:53;14.48;;;8.32;;
47894;SDS011;33653;52.302;8.134;2024-03-22T11:44:16;14.23;;;7.80;;
47894;SDS011;33653;52.302;8.134;2024-03-22T11:47:01;7.72;;;6.03;;
47894;SDS011;33653;52.302;8.134;2024-03-22T11:49:30;13.43;;;7.97;;
47894;SDS011;33653;52.302;8.134;2024-03-22T11:51:57;14.52;;;7.88;;
47894;SDS011;33653;52.302;8.134;2024-03-22T11:54:25;11.77;;;6.60;;
47894;SDS011;33653;52.302;8.134;2024-03-22T11:56:55;12.52;;;7.85;;
47894;SDS011;33653;52.302;8.134;2024-03-22T12:01:54;11.05;;;7.05;;
47894;SDS011;33653;52.302;8.134;2024-03-22T12:04:22;13.93;;;7.50;;
47894;SDS011;33653;52.302;8.134;2024-03-22T12:06:49;16.65;;;8.05;;
47894;SDS011;33653;52.302;8.134;2024-03-22T12:09:19;13.30;;;7.90;;
47894;SDS011;33653;52.302;8.134;2024-03-22T12:11:46;19.80;;;8.23;;
47894;SDS011;33653;52.302;8.134;2024-03-22T12:14:14;13.60;;;7.95;;
47894;SDS011;33653;52.302;8.134;2024-03-22T12:16:41;11.98;;;7.25;;
47894;SDS011;33653;52.302;8.134;2024-03-22T12:19:09;18.60;;;7.40;;
47894;SDS011;33653;52.302;8.134;2024-03-22T12:21:37;18.67;;;8.45;;
47894;SDS011;33653;52.302;8.134;2024-03-22T12:24:04;15.95;;;7.78;;
47894;SDS011;33653;52.302;8.134;2024-03-22T12:26:35;19.05;;;9.13;;
47894;SDS011;33653;52.302;8.134;2024-03-22T12:29:02;14.63;;;7.60;;
47894;SDS011;33653;52.302;8.134;2024-03-22T12:31:30;16.40;;;7.72;;
47894;SDS011;33653;52.302;8.134;2024-03-22T12:36:58;14.30;;;8.13;;
47894;SDS011;33653;52.302;8.134;2024-03-22T12:42:19;12.75;;;6.85;;
47894;SDS011;33653;52.302;8.134;2024-03-22T12:44:47;13.48;;;6.63;;
47894;SDS011;33653;52.302;8.134;2024-03-22T12:47:14;17.15;;;7.50;;
47894;SDS011;33653;52.302;8.134;2024-03-22T12:49:42;13.23;;;7.30;;
47894;SDS011;33653;52.302;8.134;2024-03-22T12:52:09;13.15;;;7.28;;
47894;SDS011;33653;52.302;8.134;2024-03-22T12:54:37;15.63;;;7.85;;
47894;SDS011;33653;52.302;8.134;2024-03-22T12:57:05;15.45;;;7.78;;
47894;SDS011;33653;52.302;8.134;2024-03-22T12:59:32;13.63;;;7.82;;
47894;SDS011;33653;52.302;8.134;2024-03-22T13:02:00;11.70;;;6.40;;
47894;SDS011;33653;52.302;8.134;2024-03-22T13:04:27;15.43;;;6.57;;
47894;SDS011;33653;52.302;8.134;2024-03-22T13:06:55;14.30;;;7.03;;
47894;SDS011;33653;52.302;8.134;2024-03-22T13:09:22;12.68;;;7.30;;
47894;SDS011;33653;52.302;8.134;2024-03-22T13:11:50;12.82;;;7.20;;
47894;SDS011;33653;52.302;8.134;2024-03-22T13:14:17;11.18;;;5.75;;
47894;SDS011;33653;52.302;8.134;2024-03-22T13:16:46;14.15;;;6.57;;
47894;SDS011;33653;52.302;8.134;2024-03-22T13:19:14;13.85;;;6.30;;
47894;SDS011;33653;52.302;8.134;2024-03-22T13:21:41;12.52;;;6.78;;
47894;SDS011;33653;52.302;8.134;2024-03-22T13:24:14;11.95;;;6.47;;
47894;SDS011;33653;52.302;8.134;2024-03-22T13:26:41;12.05;;;6.63;;
47894;SDS011;33653;52.302;8.134;2024-03-22T13:29:09;15.82;;;6.93;;
47894;SDS011;33653;52.302;8.134;2024-03-22T13:31:37;12.57;;;6.80;;
47894;SDS011;33653;52.302;8.134;2024-03-22T13:34:05;15.65;;;6.63;;
47894;SDS011;33653;52.302;8.134;2024-03-22T13:36:32;12.07;;;6.32;;
47894;SDS011;33653;52.302;8.134;2024-03-22T13:39:00;12.68;;;7.35;;
47894;SDS011;33653;52.302;8.134;2024-03-22T13:41:28;9.80;;;5.63;;
47894;SDS011;33653;52.302;8.134;2024-03-22T13:43:56;13.40;;;6.85;;
47894;SDS011;33653;52.302;8.134;2024-03-22T13:46:23;10.00;;;5.85;;
47894;SDS011;33653;52.302;8.134;2024-03-22T13:48:52;11.13;;;5.60;;
47894;SDS011;33653;52.302;8.134;2024-03-22T13:51:21;11.13;;;6.50;;
47894;SDS011;33653;52.302;8.134;2024-03-22T13:53:50;12.88;;;5.75;;
47894;SDS011;33653;52.302;8.134;2024-03-22T13:56:17;10.40;;;5.55;;
47894;SDS011;33653;52.302;8.134;2024-03-22T13:58:45;10.68;;;6.32;;
47894;SDS011;33653;52.302;8.134;2024-03-22T14:01:12;11.57;;;6.00;;
47894;SDS011;33653;52.302;8.134;2024-03-22T14:03:40;13.02;;;5.97;;
47894;SDS011;33653;52.302;8.134;2024-03-22T14:06:07;13.25;;;6.50;;
47894;SDS011;33653;52.302;8.134;2024-03-22T14:08:34;9.90;;;5.85;;
47894;SDS011;33653;52.302;8.134;2024-03-22T14:11:02;10.40;;;5.70;;
47894;SDS011;33653;52.302;8.134;2024-03-22T14:13:29;10.65;;;4.75;;
47894;SDS011;33653;52.302;8.134;2024-03-22T14:15:57;10.77;;;5.80;;
47894;SDS011;33653;52.302;8.134;2024-03-22T14:18:24;10.27;;;5.35;;
47894;SDS011;33653;52.302;8.134;2024-03-22T14:20:52;10.45;;;5.82;;
47894;SDS011;33653;52.302;8.134;2024-03-22T14:23:19;9.57;;;5.40;;
47894;SDS011;33653;52.302;8.134;2024-03-22T14:25:47;10.25;;;5.95;;
47894;SDS011;33653;52.302;8.134;2024-03-22T14:28:15;11.65;;;5.80;;
47894;SDS011;33653;52.302;8.134;2024-03-22T14:30:42;13.13;;;7.00;;
47894;SDS011;33653;52.302;8.134;2024-03-22T14:33:09;16.85;;;6.65;;
47894;SDS011;33653;52.302;8.134;2024-03-22T14:35:37;9.80;;;5.25;;
47894;SDS011;33653;52.302;8.134;2024-03-22T14:38:07;10.90;;;6.20;;
47894;SDS011;33653;52.302;8.134;2024-03-22T14:40:35;10.93;;;5.85;;
47894;SDS011;33653;52.302;8.134;2024-03-22T14:43:03;9.25;;;4.45;;
47894;SDS011;33653;52.302;8.134;2024-03-22T14:45:31;11.48;;;6.13;;
47894;SDS011;33653;52.302;8.134;2024-03-22T14:47:58;12.38;;;6.93;;
47894;SDS011;33653;52.302;8.134;2024-03-22T14:50:26;13.18;;;6.30;;
47894;SDS011;33653;52.302;8.134;2024-03-22T14:52:53;9.85;;;5.15;;
47894;SDS011;33653;52.302;8.134;2024-03-22T14:55:21;10.10;;;5.68;;
47894;SDS011;33653;52.302;8.134;2024-03-22T14:57:48;8.05;;;4.88;;
47894;SDS011;33653;52.302;8.134;2024-03-22T15:03:17;9.88;;;5.25;;
47894;SDS011;33653;52.302;8.134;2024-03-22T15:05:47;7.13;;;4.22;;
47894;SDS011;33653;52.302;8.134;2024-03-22T15:10:46;5.40;;;3.78;;
47894;SDS011;33653;52.302;8.134;2024-03-22T15:13:15;7.47;;;4.00;;
47894;SDS011;33653;52.302;8.134;2024-03-22T15:15:55;7.50;;;3.55;;
47894;SDS011;33653;52.302;8.134;2024-03-22T15:18:24;9.48;;;3.85;;
47894;SDS011;33653;52.302;8.134;2024-03-22T15:20:54;6.82;;;4.13;;
47894;SDS011;33653;52.302;8.134;2024-03-22T15:23:24;6.55;;;3.95;;